Pagrindinis puslapis
METAR-TAF:

METAR-TAF

Oro uostai :

Sionderborgas, Danija

platuma: 54-58N, ilguma: 009-47E, Aukštis: 7 m

Dabartinis oras

Ataskaita buvo paskelbta 22 minutes, ne 04:20 UTC
Vėjas 12 kt iš Vakarų/Pietvakarių
Temperatūra 6°C
Drėgmė 81%
Slėgis 1008 hPa
Matomumas 10 km arba daugiau
Su prošvaistėmis ne aukštis 1200 ft
Su prošvaistėmis ne aukštis 5000 ft

METAR: EKSB 020420Z 25012KT 9999 BKN012 BKN050 06/03 Q1008

Laikas: 06:42 (04:42 UTC)

Prognozė

Ataskaita buvo paskelbta 19 valandos ir 47 minutes, ne 08:55 UTC
Prognozė galioja nuo 01 metu 09 UTC su 01 metu 13 UTC
Vėjas 12 kt iš Vakarų
Matomumas 10 km arba daugiau
Su prošvaistėmis ne aukštis 3000 ft
Laikinai
nuo 01 metu 09 UTC su 01 metu 13 UTC
Su prošvaistėmis ne aukštis 1200 ft
Išsisklaidę debesys ne aukštis 2000 ft, aukštai iškilę kamuoliniai debesys.

TAF: EKSB 010855Z 0109/0113 28012KT 9999 BKN030 TEMPO 0109/0113 BKN012 SCT020TCU

Orai ataskaitas ir orų prognozės (METAR, TAF).

turimą stotys yra geltonos ir raudonos taškus žemėlapyje.

Perkelti pele per norėdami pamatyti stoties vardą.

Tada spustelėkite, norėdami matyti oro stebėjimo ir prognozės.

Norėdami pakeisti žemėlapį: spustelėkite ant žalios mygtukų su juodo kryžiaus žemyn,; žalią mygtuką su brūkšneliu, jei norite nutolinti; arba žalių rodyklių gretimoms žemėlapius.


METAR-TAF: